Latest Coastal Weather Observations for Hopetoun North

IDW60701

Issued at 9:53 pm WST Monday 4 May 2026 (issued every 10 minutes, with the page automatically refreshed every 10 minutes)

About coastal observations | Map of coastal stations | Coastal observations for WA | Marine services | Other Formats
Station Details ID: 009961 Name: HOPETOUN NORTH Lat: -33.93 Lon: 120.13 Height: 26.0 m
Data from the previous 72 hours. | See also: Recent months at Hopetoun North
Date/Time
WST
Wind Sea
Height
m
Swell Vis
km
Cloud Weather Temp
°C
Press
MSL
hPa
Rain since
9am
mm
Dir  Spd
kts
Gust
kts
Height
m
Period
s
Dir
04/09:30pm NNE 2 3 - - - - - - - 15.0 1027.9 0.0
04/09:00pm NNE 2 3 - - - - - - - 15.0 1028.0 0.0
04/08:30pm ENE 3 4 - - - - - - - 15.3 1028.1 0.0
04/08:00pm NNW 1 4 - - - - - - - 15.4 1028.3 0.0
04/07:30pm NW 2 3 - - - - - - - 15.4 1028.2 0.0
04/07:00pm CALM 0 2 - - - - - - - 15.4 1028.1 0.0
04/06:30pm W 1 2 - - - - - - - 15.6 1028.0 0.0
04/06:00pm SW 2 3 - - - - - - - 15.7 1027.7 0.0
04/05:30pm CALM 0 0 - - - - - - - 15.8 1027.4 0.0
04/05:00pm SSW 2 3 - - - - - - - 16.0 1027.2 0.0
04/04:30pm S 2 5 - - - - - - - 16.2 1027.4 0.0
04/04:00pm SSE 2 3 - - - - - - - 16.4 1027.3 0.0
04/03:30pm SSE 4 6 - - - - - - - 16.4 1027.0 0.0
04/03:00pm SW 2 5 - - - - - - - 16.7 1026.9 0.0
04/02:30pm SSW 4 7 - - - - - - - 16.9 1026.8 0.0
04/02:00pm SSW 5 8 - - - - - - - 17.1 1026.8 0.0
04/01:30pm SSW 4 6 - - - - - - - 17.2 1026.9 0.0
04/01:00pm SSW 5 7 - - - - - - - 17.4 1026.9 0.0
04/12:30pm S 3 5 - - - - - - - 17.3 1027.2 0.0
04/12:00pm SSE 3 5 - - - - - - - 17.0 1027.4 0.0
04/11:30am SSE 2 5 - - - - - - - 16.9 1027.8 0.0
04/11:00am S 3 5 - - - - - - - 16.6 1028.2 0.0
04/10:30am S 5 7 - - - - - - - 16.8 1028.2 0.0
04/10:00am S 3 7 - - - - - - - 16.7 1028.3 0.0
04/09:30am SSE 4 7 - - - - - - - 16.9 1028.1 0.0
04/09:00am SE 3 5 - - - - - - - 16.6 1028.3 0.2
04/08:30am SSE 4 7 - - - - - - - 16.2 1028.3 0.2
04/08:00am S 3 5 - - - - - - - 15.6 1028.1 0.2
04/07:30am S 5 7 - - - - - - - 15.5 1027.7 0.2
04/07:00am SSW 4 7 - - - - - - - 15.5 1027.4 0.2
04/06:30am SSE 4 6 - - - - - - - 15.5 1027.2 0.2
04/06:00am S 5 7 - - - - - - - 15.6 1027.1 0.2
04/05:30am SSE 7 12 - - - - - - - 15.7 1027.0 0.2
04/05:00am S 8 12 - - - - - - - 15.9 1027.0 0.2
04/04:30am S 7 11 - - - - - - - 15.8 1026.8 0.2
04/04:00am S 5 9 - - - - - - - 15.7 1026.7 0.2
04/03:30am S 6 9 - - - - - - - 15.7 1026.5 0.2
04/03:00am SSW 9 11 - - - - - - - 15.8 1026.5 0.2
04/02:30am SSW 7 10 - - - - - - - 15.7 1026.5 0.2
04/02:00am S 7 12 - - - - - - - 15.9 1026.6 0.2
04/01:30am S 8 11 - - - - - - - 15.8 1026.6 0.2
04/01:00am SSW 9 13 - - - - - - - 15.5 1026.5 0.2
04/12:30am S 8 12 - - - - - - - 15.4 1026.4 0.2
04/12:00am SSW 4 7 - - - - - - - 15.2 1026.3 0.2
 
Date/Time
WST
Wind Sea
Height
m
Swell Vis
km
Cloud Weather Temp
°C
Press
MSL
hPa
Rain since
9am
mm
Dir  Spd
kts
Gust
kts
Height
m
Period
s
Dir
03/11:30pm S 10 15 - - - - - - - 15.4 1026.4 0.2
03/11:00pm SSW 8 11 - - - - - - - 15.5 1026.3 0.2
03/10:30pm SSW 6 8 - - - - - - - 15.0 1026.4 0.2
03/10:00pm SSW 7 10 - - - - - - - 15.5 1026.6 0.2
03/09:30pm SSE 8 12 - - - - - - - 15.6 1026.7 0.2
03/09:00pm S 9 15 - - - - - - - 16.0 1026.6 0.2
03/08:30pm S 9 13 - - - - - - - 15.6 1026.5 0.2
03/08:00pm SSW 8 12 - - - - - - - 15.5 1026.3 0.2
03/07:30pm SSW 4 5 - - - - - - - 14.8 1026.2 0.2
03/07:00pm SSW 10 13 - - - - - - - 15.7 1026.0 0.2
03/06:30pm S 7 10 - - - - - - - 16.0 1025.7 0.2
03/06:00pm WSW 6 11 - - - - - - - 15.6 1025.4 0.2
03/05:30pm SSW 5 7 - - - - - - - 15.7 1025.2 0.2
03/05:00pm SSW 9 12 - - - - - - - 16.1 1025.1 0.2
03/04:30pm SSW 7 10 - - - - - - - 16.6 1024.9 0.2
03/04:00pm SW 8 13 - - - - - - - 16.4 1025.0 0.2
03/03:30pm SSW 7 11 - - - - - - - 16.8 1024.8 0.2
03/03:00pm SSW 10 13 - - - - - - - 16.9 1024.7 0.2
03/02:30pm SSW 9 13 - - - - - - - 17.2 1024.5 0.2
03/02:00pm SSW 9 13 - - - - - - - 17.5 1024.5 0.2
03/01:30pm SSW 8 12 - - - - - - - 17.6 1024.5 0.2
03/01:00pm SSW 10 12 - - - - - - - 18.0 1024.6 0.2
03/12:30pm S 7 10 - - - - - - - 18.1 1024.7 0.2
03/12:00pm S 11 15 - - - - - - Recent precip. 17.7 1025.1 0.2
03/11:30am S 10 13 - - - - - - - 17.8 1025.4 0.0
03/11:00am SSW 9 12 - - - - - - - 17.2 1025.5 0.0
03/10:30am SSW 9 13 - - - - - - - 17.9 1025.5 0.0
03/10:00am SSW 8 14 - - - - - - - 17.4 1025.5 0.0
03/09:30am SSW 9 12 - - - - - - - 16.6 1025.4 0.0
03/09:00am SSW 11 15 - - - - - - - 17.1 1025.1 15.6
03/08:30am SSW 10 15 - - - - - - - 16.4 1024.8 15.6
03/08:00am S 8 13 - - - - - - - 15.7 1024.6 15.6
03/07:30am SSW 11 15 - - - - - - - 15.4 1024.2 15.6
03/07:00am S 11 16 - - - - - - - 14.7 1023.8 15.6
03/06:30am SSW 12 18 - - - - - - - 14.8 1023.4 15.6
03/06:00am SSW 12 18 - - - - - - - 14.6 1023.1 15.6
03/05:30am SSW 12 16 - - - - - - - 14.9 1022.8 15.6
03/05:00am SSW 12 17 - - - - - - - 14.7 1022.4 15.6
03/04:30am SSW 10 15 - - - - - - - 14.6 1022.1 15.6
03/04:00am SSW 12 19 - - - - - - - 14.3 1022.0 15.6
03/03:30am SSW 12 20 - - - - - - - 14.3 1021.8 15.6
03/03:00am S 11 17 - - - - - - - 14.0 1021.8 15.6
03/02:30am SSW 11 18 - - - - - - - 14.1 1021.8 15.6
03/02:00am SSW 9 16 - - - - - - - 14.1 1021.9 15.6
03/01:30am SSW 8 13 - - - - - - - 13.8 1021.8 15.6
03/01:00am SW 11 17 - - - - - - - 13.8 1021.8 15.4
03/12:30am WSW 9 14 - - - - - - - 13.7 1021.8 14.2
03/12:00am W 8 11 - - - - - - Rain 13.2 1021.6 10.8
 
Date/Time
WST
Wind Sea
Height
m
Swell Vis
km
Cloud Weather Temp
°C
Press
MSL
hPa
Rain since
9am
mm
Dir  Spd
kts
Gust
kts
Height
m
Period
s
Dir
02/11:30pm W 8 14 - - - - - - - 13.2 1021.7 9.2
02/11:00pm W 9 13 - - - - - - - 13.2 1021.8 9.0
02/10:30pm W 9 15 - - - - - - - 13.2 1021.9 8.8
02/10:00pm W 9 14 - - - - - - - 13.2 1022.0 8.8
02/09:30pm W 8 12 - - - - - - - 13.3 1022.0 8.8
02/09:00pm W 8 12 - - - - - - Recent precip. 13.2 1022.0 8.6
02/08:30pm W 9 16 - - - - - - - 13.2 1022.0 8.4
02/08:00pm WSW 11 18 - - - - - - - 13.6 1021.9 7.8
02/07:30pm W 8 14 - - - - - - - 13.4 1021.9 6.8
02/07:00pm W 8 11 - - - - - - - 13.4 1021.8 6.2
02/06:30pm W 7 10 - - - - - - - 13.4 1021.7 5.8
02/06:00pm W 7 11 - - - - - - Recent precip. 13.4 1021.5 5.4
02/05:30pm WSW 13 21 - - - - - - - 13.8 1021.3 5.4
02/05:00pm WSW 10 15 - - - - - - - 14.1 1021.2 5.0
02/04:30pm WSW 10 16 - - - - - - - 14.2 1021.2 5.0
02/04:00pm SW 15 25 - - - - - - - 14.3 1021.2 5.0
02/03:58pm WSW 15 25 - - - - - - - 14.5 1021.2 5.0
02/03:30pm SW 10 14 - - - - - - - 14.7 1021.2 5.0
02/03:00pm WSW 11 15 - - - - - - Recent precip. 14.8 1021.1 5.0
02/02:30pm WSW 11 15 - - - - - - - 14.1 1021.3 5.0
02/02:00pm SW 8 11 - - - - - - - 13.8 1021.2 4.8
02/01:30pm WSW 12 20 - - - - - - - 14.0 1021.4 4.8
02/01:03pm SW 15 26 - - - - - - - 14.5 1021.5 4.6
02/01:00pm SW 13 17 - - - - - - - 15.1 1021.4 4.6
02/12:30pm SW 11 17 - - - - - - - 13.9 1021.7 4.6
02/12:00pm SSW 16 23 - - - - - - - 14.2 1022.0 4.4
02/11:30am WSW 12 17 - - - - - - - 13.2 1022.1 4.4
02/11:00am WSW 12 19 - - - - - - - 12.3 1022.5 4.4
02/10:30am W 11 17 - - - - - - - 12.2 1022.5 1.4
02/10:00am WSW 14 20 - - - - - - - 12.1 1022.8 1.0
02/09:30am SW 12 24 - - - - - - - 12.3 1022.6 0.0
02/09:00am W 12 19 - - - - - - Recent precip. 11.2 1022.5 16.6
02/08:30am W 10 15 - - - - - - - 11.7 1022.2 16.4
02/08:00am SW 16 21 - - - - - - - 11.6 1021.9 16.4
02/07:57am WSW 15 21 - - - - - - - 11.6 1021.9 16.4
02/07:30am W 9 14 - - - - - - - 10.6 1021.4 15.8
02/07:00am WSW 10 15 - - - - - - - 10.6 1021.6 15.6
02/06:30am W 10 18 - - - - - - - 10.7 1021.1 15.0
02/06:00am WSW 14 23 - - - - - - Rain 11.3 1020.7 13.0
02/05:30am SW 17 26 - - - - - - - 11.8 1020.9 11.6
02/05:24am WSW 15 26 - - - - - - - 12.4 1020.8 10.8
02/05:00am SW 13 23 - - - - - - - 12.2 1020.6 10.6
02/04:40am SSW 16 26 - - - - - - - 12.2 1020.3 10.6
02/04:30am WSW 14 25 - - - - - - - 11.4 1020.2 10.6
02/04:00am W 13 19 - - - - - - - 11.5 1020.3 10.4
02/03:30am SSW 12 19 - - - - - - - 12.5 1020.1 10.4
02/03:00am W 12 17 - - - - - - Rain 11.6 1020.3 10.2
02/02:33am SW 15 27 - - - - - - - 12.4 1020.5 9.2
02/02:30am SSW 13 22 - - - - - - - 12.2 1020.5 9.2
02/02:07am SSW 15 25 - - - - - - - 12.1 1020.6 9.2
02/02:00am SSW 17 25 - - - - - - - 11.8 1020.5 9.0
02/01:30am SSW 18 29 - - - - - - - 12.0 1020.4 8.8
02/01:02am SSW 16 26 - - - - - - - 12.5 1020.2 8.4
02/01:00am SSW 16 23 - - - - - - - 12.2 1020.2 8.4
02/12:40am SSW 15 25 - - - - - - - 12.6 1020.3 6.6
02/12:30am SSW 15 23 - - - - - - - 13.5 1020.2 6.2
02/12:00am SSW 15 24 - - - - - - - 13.1 1020.1 6.2
 
Date/Time
WST
Wind Sea
Height
m
Swell Vis
km
Cloud Weather Temp
°C
Press
MSL
hPa
Rain since
9am
mm
Dir  Spd
kts
Gust
kts
Height
m
Period
s
Dir
01/11:44pm SSW 15 27 - - - - - - - 13.8 1020.1 6.2
01/11:30pm SSW 14 20 - - - - - - - 13.1 1020.3 6.2
01/11:05pm SSW 15 28 - - - - - - - 13.7 1020.2 6.2
01/11:00pm SSW 15 22 - - - - - - - 13.3 1020.0 6.2
01/10:30pm SSW 16 22 - - - - - - - 13.6 1020.3 6.0
01/10:00pm SSW 16 26 - - - - - - - 13.9 1020.3 5.8

Other formats

Comma delimited format used in spreadsheet applications
http://www.bom.gov.au/fwo/IDW60701/IDW60701.95635.axf

JavaScript Object Notation format (JSON) in row-major order
http://www.bom.gov.au/fwo/IDW60701/IDW60701.95635.json

Data quality

Most of these data are generated automatically and are frequently updated. Quality checks on data are not normally performed. It is possible for incorrect values to appear. Refer to information at About Latest Weather Observations and please check the disclaimer before using these data.